sensor_id;sensor_type;location;lat;lon;timestamp;pressure;altitude;pressure_sealevel;temperature;humidity
37291;BME280;23175;-33.706;151.094;2023-07-09T00:02:20;100006.84;;;10.57;35.36
37291;BME280;23175;-33.706;151.094;2023-07-09T00:04:51;100005.35;;;10.45;35.98
37291;BME280;23175;-33.706;151.094;2023-07-09T00:07:24;100001.98;;;9.27;37.11
37291;BME280;23175;-33.706;151.094;2023-07-09T00:09:58;100002.83;;;10.64;36.18
37291;BME280;23175;-33.706;151.094;2023-07-09T00:12:29;99998.64;;;9.76;36.57
37291;BME280;23175;-33.706;151.094;2023-07-09T00:14:58;99986.21;;;10.93;35.16
37291;BME280;23175;-33.706;151.094;2023-07-09T00:17:31;99976.51;;;9.62;36.34
37291;BME280;23175;-33.706;151.094;2023-07-09T00:20:02;99975.56;;;10.42;34.58
37291;BME280;23175;-33.706;151.094;2023-07-09T00:22:33;99974.02;;;10.61;34.06
37291;BME280;23175;-33.706;151.094;2023-07-09T00:25:02;99980.07;;;13.11;31.17
37291;BME280;23175;-33.706;151.094;2023-07-09T00:27:32;99985.44;;;9.53;35.52
37291;BME280;23175;-33.706;151.094;2023-07-09T00:30:02;99983.43;;;9.52;35.65
37291;BME280;23175;-33.706;151.094;2023-07-09T00:32:32;99981.10;;;11.59;33.65
37291;BME280;23175;-33.706;151.094;2023-07-09T00:35:01;99987.01;;;11.21;34.42
37291;BME280;23175;-33.706;151.094;2023-07-09T00:37:31;99991.52;;;10.28;35.27
37291;BME280;23175;-33.706;151.094;2023-07-09T00:40:01;99999.16;;;12.34;33.20
37291;BME280;23175;-33.706;151.094;2023-07-09T00:42:31;99994.75;;;11.29;33.08
37291;BME280;23175;-33.706;151.094;2023-07-09T00:45:02;99985.01;;;13.43;30.68
37291;BME280;23175;-33.706;151.094;2023-07-09T00:47:40;99986.11;;;9.75;32.65
37291;BME280;23175;-33.706;151.094;2023-07-09T00:50:24;99991.56;;;10.96;31.99
37291;BME280;23175;-33.706;151.094;2023-07-09T00:52:59;99982.70;;;11.66;30.43
37291;BME280;23175;-33.706;151.094;2023-07-09T00:55:32;99994.20;;;10.80;30.96
37291;BME280;23175;-33.706;151.094;2023-07-09T00:58:05;99994.95;;;9.54;31.82
37291;BME280;23175;-33.706;151.094;2023-07-09T01:00:39;99992.45;;;10.97;31.72
37291;BME280;23175;-33.706;151.094;2023-07-09T01:03:13;99987.50;;;13.90;28.00
37291;BME280;23175;-33.706;151.094;2023-07-09T01:05:45;99984.14;;;15.11;27.83
37291;BME280;23175;-33.706;151.094;2023-07-09T01:08:16;99989.03;;;13.78;29.08
37291;BME280;23175;-33.706;151.094;2023-07-09T01:10:47;99976.52;;;12.04;31.19
37291;BME280;23175;-33.706;151.094;2023-07-09T01:13:18;99967.57;;;11.43;32.01
37291;BME280;23175;-33.706;151.094;2023-07-09T01:15:49;99968.25;;;10.72;33.98
37291;BME280;23175;-33.706;151.094;2023-07-09T01:18:19;99961.74;;;12.07;33.70
37291;BME280;23175;-33.706;151.094;2023-07-09T01:20:50;99955.05;;;12.65;32.36
37291;BME280;23175;-33.706;151.094;2023-07-09T01:23:20;99959.58;;;9.90;35.49
37291;BME280;23175;-33.706;151.094;2023-07-09T01:25:52;99957.68;;;12.76;32.94
37291;BME280;23175;-33.706;151.094;2023-07-09T01:28:23;99960.45;;;11.02;34.32
37291;BME280;23175;-33.706;151.094;2023-07-09T01:30:54;99949.72;;;11.59;34.04
37291;BME280;23175;-33.706;151.094;2023-07-09T01:33:25;99943.80;;;10.48;35.09
37291;BME280;23175;-33.706;151.094;2023-07-09T01:35:55;99943.27;;;12.91;32.89
37291;BME280;23175;-33.706;151.094;2023-07-09T01:38:25;99944.99;;;11.43;33.82
37291;BME280;23175;-33.706;151.094;2023-07-09T01:40:55;99936.38;;;10.82;34.16
37291;BME280;23175;-33.706;151.094;2023-07-09T01:43:25;99935.12;;;12.69;32.32
37291;BME280;23175;-33.706;151.094;2023-07-09T01:45:56;99933.36;;;11.31;34.19
37291;BME280;23175;-33.706;151.094;2023-07-09T01:48:27;99936.68;;;11.55;33.65
37291;BME280;23175;-33.706;151.094;2023-07-09T01:50:57;99937.06;;;11.02;34.05
37291;BME280;23175;-33.706;151.094;2023-07-09T01:53:29;99938.07;;;11.31;34.31
37291;BME280;23175;-33.706;151.094;2023-07-09T01:55:59;99926.04;;;11.66;34.82
37291;BME280;23175;-33.706;151.094;2023-07-09T01:58:29;99920.25;;;12.40;33.20
37291;BME280;23175;-33.706;151.094;2023-07-09T02:01:00;99924.82;;;11.04;34.87
37291;BME280;23175;-33.706;151.094;2023-07-09T02:03:30;99915.93;;;12.74;33.09
37291;BME280;23175;-33.706;151.094;2023-07-09T02:06:00;99922.39;;;10.89;34.90
37291;BME280;23175;-33.706;151.094;2023-07-09T02:08:29;99920.33;;;11.37;33.61
37291;BME280;23175;-33.706;151.094;2023-07-09T02:10:59;99913.26;;;12.31;32.54
37291;BME280;23175;-33.706;151.094;2023-07-09T02:13:29;99907.31;;;10.81;33.23
37291;BME280;23175;-33.706;151.094;2023-07-09T02:15:59;99897.13;;;14.37;30.45
37291;BME280;23175;-33.706;151.094;2023-07-09T02:18:30;99894.60;;;11.66;33.99
37291;BME280;23175;-33.706;151.094;2023-07-09T02:21:00;99881.09;;;11.97;33.12
37291;BME280;23175;-33.706;151.094;2023-07-09T02:23:30;99878.93;;;10.99;33.76
37291;BME280;23175;-33.706;151.094;2023-07-09T02:26:00;99869.36;;;12.26;33.46
37291;BME280;23175;-33.706;151.094;2023-07-09T02:28:30;99866.82;;;10.91;33.71
37291;BME280;23175;-33.706;151.094;2023-07-09T02:31:00;99857.70;;;11.33;34.15
37291;BME280;23175;-33.706;151.094;2023-07-09T02:33:30;99863.93;;;11.11;34.11
37291;BME280;23175;-33.706;151.094;2023-07-09T02:35:59;99858.19;;;11.01;34.11
37291;BME280;23175;-33.706;151.094;2023-07-09T02:38:29;99857.65;;;12.35;33.22
37291;BME280;23175;-33.706;151.094;2023-07-09T02:40:59;99862.50;;;10.44;34.47
37291;BME280;23175;-33.706;151.094;2023-07-09T02:43:29;99863.48;;;11.59;34.00
37291;BME280;23175;-33.706;151.094;2023-07-09T02:45:59;99852.11;;;10.69;34.86
37291;BME280;23175;-33.706;151.094;2023-07-09T02:48:29;99855.44;;;10.08;35.39
37291;BME280;23175;-33.706;151.094;2023-07-09T02:50:59;99845.66;;;10.74;35.06
37291;BME280;23175;-33.706;151.094;2023-07-09T02:53:29;99850.61;;;12.15;33.74
37291;BME280;23175;-33.706;151.094;2023-07-09T02:56:00;99846.98;;;10.80;34.43
37291;BME280;23175;-33.706;151.094;2023-07-09T02:58:29;99846.78;;;10.03;35.60
37291;BME280;23175;-33.706;151.094;2023-07-09T03:00:59;99843.51;;;10.52;35.66
37291;BME280;23175;-33.706;151.094;2023-07-09T03:03:29;99838.58;;;10.87;34.74
37291;BME280;23175;-33.706;151.094;2023-07-09T03:05:59;99830.34;;;9.77;35.52
37291;BME280;23175;-33.706;151.094;2023-07-09T03:08:29;99839.50;;;11.23;34.25
37291;BME280;23175;-33.706;151.094;2023-07-09T03:11:02;99833.63;;;10.23;35.26
37291;BME280;23175;-33.706;151.094;2023-07-09T03:13:37;99833.06;;;10.49;35.15
37291;BME280;23175;-33.706;151.094;2023-07-09T03:16:07;99825.23;;;9.25;35.67
37291;BME280;23175;-33.706;151.094;2023-07-09T03:18:37;99831.68;;;9.91;36.52
37291;BME280;23175;-33.706;151.094;2023-07-09T03:21:06;99826.82;;;10.42;34.91
37291;BME280;23175;-33.706;151.094;2023-07-09T03:23:36;99821.92;;;11.55;35.36
37291;BME280;23175;-33.706;151.094;2023-07-09T03:26:06;99826.08;;;10.52;34.39
37291;BME280;23175;-33.706;151.094;2023-07-09T03:28:36;99830.09;;;10.75;35.44
37291;BME280;23175;-33.706;151.094;2023-07-09T03:31:07;99832.51;;;9.76;35.62
37291;BME280;23175;-33.706;151.094;2023-07-09T03:33:37;99838.82;;;11.12;35.32
37291;BME280;23175;-33.706;151.094;2023-07-09T03:36:07;99830.24;;;9.43;36.30
37291;BME280;23175;-33.706;151.094;2023-07-09T03:38:37;99841.51;;;10.72;34.87
37291;BME280;23175;-33.706;151.094;2023-07-09T03:41:06;99848.82;;;9.80;35.86
37291;BME280;23175;-33.706;151.094;2023-07-09T03:43:36;99847.40;;;11.45;34.50
37291;BME280;23175;-33.706;151.094;2023-07-09T03:46:06;99853.13;;;9.52;35.22
37291;BME280;23175;-33.706;151.094;2023-07-09T03:48:36;99848.22;;;12.71;33.05
37291;BME280;23175;-33.706;151.094;2023-07-09T03:51:05;99850.47;;;11.31;32.92
37291;BME280;23175;-33.706;151.094;2023-07-09T03:53:35;99839.34;;;11.52;34.06
37291;BME280;23175;-33.706;151.094;2023-07-09T03:56:05;99838.45;;;12.17;32.77
37291;BME280;23175;-33.706;151.094;2023-07-09T03:58:34;99840.17;;;11.74;33.67
37291;BME280;23175;-33.706;151.094;2023-07-09T04:01:05;99842.82;;;10.25;33.92
37291;BME280;23175;-33.706;151.094;2023-07-09T04:03:35;99843.60;;;9.84;35.96
37291;BME280;23175;-33.706;151.094;2023-07-09T04:06:04;99859.80;;;9.02;36.55
37291;BME280;23175;-33.706;151.094;2023-07-09T04:08:34;99848.67;;;9.99;36.20
37291;BME280;23175;-33.706;151.094;2023-07-09T04:11:04;99860.57;;;10.85;34.78
37291;BME280;23175;-33.706;151.094;2023-07-09T04:13:34;99859.83;;;11.71;34.26
37291;BME280;23175;-33.706;151.094;2023-07-09T04:16:04;99862.69;;;12.14;32.45
37291;BME280;23175;-33.706;151.094;2023-07-09T04:18:35;99868.99;;;11.56;33.86
37291;BME280;23175;-33.706;151.094;2023-07-09T04:21:04;99872.42;;;11.89;32.77
37291;BME280;23175;-33.706;151.094;2023-07-09T04:23:34;99871.96;;;10.79;35.01
37291;BME280;23175;-33.706;151.094;2023-07-09T04:26:04;99867.13;;;9.06;36.22
37291;BME280;23175;-33.706;151.094;2023-07-09T04:28:33;99854.61;;;11.82;34.35
37291;BME280;23175;-33.706;151.094;2023-07-09T04:31:03;99858.75;;;10.25;34.84
37291;BME280;23175;-33.706;151.094;2023-07-09T04:33:33;99854.37;;;11.66;34.38
37291;BME280;23175;-33.706;151.094;2023-07-09T04:36:03;99849.97;;;10.48;34.41
37291;BME280;23175;-33.706;151.094;2023-07-09T04:38:32;99856.80;;;11.00;35.30
37291;BME280;23175;-33.706;151.094;2023-07-09T04:41:02;99853.51;;;12.96;32.42
37291;BME280;23175;-33.706;151.094;2023-07-09T04:43:32;99858.63;;;13.05;33.01
37291;BME280;23175;-33.706;151.094;2023-07-09T04:46:01;99862.54;;;12.39;33.22
37291;BME280;23175;-33.706;151.094;2023-07-09T04:48:31;99862.27;;;11.97;33.75
37291;BME280;23175;-33.706;151.094;2023-07-09T04:51:01;99868.37;;;12.04;33.91
37291;BME280;23175;-33.706;151.094;2023-07-09T04:53:31;99870.62;;;10.50;35.75
37291;BME280;23175;-33.706;151.094;2023-07-09T04:56:00;99874.34;;;11.35;35.23
37291;BME280;23175;-33.706;151.094;2023-07-09T04:58:31;99880.68;;;12.22;33.91
37291;BME280;23175;-33.706;151.094;2023-07-09T05:01:01;99886.49;;;11.24;34.98
37291;BME280;23175;-33.706;151.094;2023-07-09T05:03:30;99879.38;;;13.09;32.40
37291;BME280;23175;-33.706;151.094;2023-07-09T05:06:00;99885.88;;;12.58;33.14
37291;BME280;23175;-33.706;151.094;2023-07-09T05:08:30;99885.12;;;9.75;36.37
37291;BME280;23175;-33.706;151.094;2023-07-09T05:11:00;99886.89;;;11.60;34.94
37291;BME280;23175;-33.706;151.094;2023-07-09T05:13:30;99889.25;;;11.43;34.99
37291;BME280;23175;-33.706;151.094;2023-07-09T05:16:00;99894.15;;;12.88;32.89
37291;BME280;23175;-33.706;151.094;2023-07-09T05:18:30;99903.47;;;10.76;35.25
37291;BME280;23175;-33.706;151.094;2023-07-09T05:20:59;99902.15;;;10.36;35.91
37291;BME280;23175;-33.706;151.094;2023-07-09T05:23:29;99909.33;;;12.85;33.74
37291;BME280;23175;-33.706;151.094;2023-07-09T05:26:00;99917.99;;;13.28;32.71
37291;BME280;23175;-33.706;151.094;2023-07-09T05:28:31;99916.22;;;12.52;33.41
37291;BME280;23175;-33.706;151.094;2023-07-09T05:31:01;99920.65;;;12.04;34.71
37291;BME280;23175;-33.706;151.094;2023-07-09T05:33:31;99918.58;;;10.31;36.52
37291;BME280;23175;-33.706;151.094;2023-07-09T05:36:01;99924.12;;;10.89;35.30
37291;BME280;23175;-33.706;151.094;2023-07-09T05:38:31;99934.88;;;10.63;35.68
37291;BME280;23175;-33.706;151.094;2023-07-09T05:41:02;99924.45;;;9.76;36.72
37291;BME280;23175;-33.706;151.094;2023-07-09T05:43:32;99926.64;;;10.76;35.97
37291;BME280;23175;-33.706;151.094;2023-07-09T05:46:04;99918.47;;;9.69;36.64
37291;BME280;23175;-33.706;151.094;2023-07-09T05:48:34;99928.32;;;10.79;35.81
37291;BME280;23175;-33.706;151.094;2023-07-09T05:51:04;99932.65;;;9.57;36.68
37291;BME280;23175;-33.706;151.094;2023-07-09T05:53:34;99930.76;;;10.05;36.87
37291;BME280;23175;-33.706;151.094;2023-07-09T05:56:04;99936.19;;;10.23;35.89
37291;BME280;23175;-33.706;151.094;2023-07-09T05:58:35;99932.60;;;12.23;34.62
37291;BME280;23175;-33.706;151.094;2023-07-09T06:01:05;99939.76;;;9.63;36.53
37291;BME280;23175;-33.706;151.094;2023-07-09T06:03:35;99946.43;;;11.89;34.73
37291;BME280;23175;-33.706;151.094;2023-07-09T06:06:05;99948.33;;;9.91;36.30
37291;BME280;23175;-33.706;151.094;2023-07-09T06:08:34;99956.20;;;11.11;36.33
37291;BME280;23175;-33.706;151.094;2023-07-09T06:11:04;99954.30;;;9.17;37.37
37291;BME280;23175;-33.706;151.094;2023-07-09T06:13:35;99953.02;;;9.67;37.43
37291;BME280;23175;-33.706;151.094;2023-07-09T06:16:06;99955.31;;;8.70;37.89
37291;BME280;23175;-33.706;151.094;2023-07-09T06:18:35;99956.92;;;8.91;39.11
37291;BME280;23175;-33.706;151.094;2023-07-09T06:21:05;99962.76;;;9.19;37.51
37291;BME280;23175;-33.706;151.094;2023-07-09T06:23:35;99967.62;;;11.49;36.14
37291;BME280;23175;-33.706;151.094;2023-07-09T06:26:04;99969.72;;;10.32;35.85
37291;BME280;23175;-33.706;151.094;2023-07-09T06:28:35;99970.25;;;9.95;37.53
37291;BME280;23175;-33.706;151.094;2023-07-09T06:31:05;99974.67;;;8.69;37.87
37291;BME280;23175;-33.706;151.094;2023-07-09T06:33:36;99977.71;;;9.34;38.77
37291;BME280;23175;-33.706;151.094;2023-07-09T06:36:08;99978.68;;;11.07;35.11
37291;BME280;23175;-33.706;151.094;2023-07-09T06:38:38;99980.32;;;9.54;38.18
37291;BME280;23175;-33.706;151.094;2023-07-09T06:41:08;99974.75;;;9.73;36.23
37291;BME280;23175;-33.706;151.094;2023-07-09T06:43:37;99985.31;;;11.36;35.96
37291;BME280;23175;-33.706;151.094;2023-07-09T06:46:12;99989.21;;;10.58;36.38
37291;BME280;23175;-33.706;151.094;2023-07-09T06:48:42;99996.44;;;10.99;36.41
37291;BME280;23175;-33.706;151.094;2023-07-09T06:51:12;99996.80;;;11.95;34.23
37291;BME280;23175;-33.706;151.094;2023-07-09T06:53:43;99999.15;;;11.47;35.96
37291;BME280;23175;-33.706;151.094;2023-07-09T06:56:12;99997.20;;;10.39;35.49
37291;BME280;23175;-33.706;151.094;2023-07-09T06:58:42;99996.14;;;11.00;36.19
37291;BME280;23175;-33.706;151.094;2023-07-09T07:01:12;100003.93;;;9.10;37.93
37291;BME280;23175;-33.706;151.094;2023-07-09T07:03:42;100004.73;;;11.82;35.86
37291;BME280;23175;-33.706;151.094;2023-07-09T07:06:13;100008.48;;;12.66;34.07
37291;BME280;23175;-33.706;151.094;2023-07-09T07:08:42;100011.33;;;11.04;36.03
37291;BME280;23175;-33.706;151.094;2023-07-09T07:11:12;100008.45;;;9.58;36.85
37291;BME280;23175;-33.706;151.094;2023-07-09T07:13:43;100012.87;;;11.96;35.50
37291;BME280;23175;-33.706;151.094;2023-07-09T07:16:13;100013.49;;;11.98;35.26
37291;BME280;23175;-33.706;151.094;2023-07-09T07:18:43;100012.55;;;11.00;36.36
37291;BME280;23175;-33.706;151.094;2023-07-09T07:21:14;100020.06;;;11.00;36.44
37291;BME280;23175;-33.706;151.094;2023-07-09T07:23:45;100023.83;;;10.79;36.49
37291;BME280;23175;-33.706;151.094;2023-07-09T07:26:15;100023.45;;;9.30;37.86
37291;BME280;23175;-33.706;151.094;2023-07-09T07:28:45;100027.81;;;11.20;36.24
37291;BME280;23175;-33.706;151.094;2023-07-09T07:31:15;100023.70;;;11.56;35.18
37291;BME280;23175;-33.706;151.094;2023-07-09T07:33:46;100026.82;;;10.47;37.02
37291;BME280;23175;-33.706;151.094;2023-07-09T07:36:16;100029.75;;;14.95;31.82
37291;BME280;23175;-33.706;151.094;2023-07-09T07:38:46;100035.84;;;13.80;33.32
37291;BME280;23175;-33.706;151.094;2023-07-09T07:41:16;100039.54;;;11.41;35.61
37291;BME280;23175;-33.706;151.094;2023-07-09T07:43:46;100046.04;;;13.90;32.96
37291;BME280;23175;-33.706;151.094;2023-07-09T07:46:17;100051.93;;;13.23;33.52
37291;BME280;23175;-33.706;151.094;2023-07-09T07:48:46;100055.65;;;15.00;32.27
37291;BME280;23175;-33.706;151.094;2023-07-09T07:51:17;100058.18;;;13.12;33.47
37291;BME280;23175;-33.706;151.094;2023-07-09T07:53:47;100054.95;;;12.64;33.65
37291;BME280;23175;-33.706;151.094;2023-07-09T07:56:19;100059.32;;;13.57;33.59
37291;BME280;23175;-33.706;151.094;2023-07-09T07:58:49;100058.24;;;13.35;33.67
37291;BME280;23175;-33.706;151.094;2023-07-09T08:01:20;100065.36;;;12.93;33.45
37291;BME280;23175;-33.706;151.094;2023-07-09T08:03:51;100069.90;;;9.80;37.18
37291;BME280;23175;-33.706;151.094;2023-07-09T08:06:21;100075.30;;;11.38;36.67
37291;BME280;23175;-33.706;151.094;2023-07-09T08:08:52;100071.77;;;12.28;35.10
37291;BME280;23175;-33.706;151.094;2023-07-09T08:11:21;100072.37;;;11.28;35.85
37291;BME280;23175;-33.706;151.094;2023-07-09T08:13:51;100077.13;;;10.68;36.69
37291;BME280;23175;-33.706;151.094;2023-07-09T08:16:22;100081.06;;;9.41;38.16
37291;BME280;23175;-33.706;151.094;2023-07-09T08:18:52;100086.04;;;10.79;37.46
37291;BME280;23175;-33.706;151.094;2023-07-09T08:21:22;100089.04;;;9.54;39.03
37291;BME280;23175;-33.706;151.094;2023-07-09T08:23:51;100089.42;;;9.27;40.07
37291;BME280;23175;-33.706;151.094;2023-07-09T08:26:21;100091.47;;;11.45;37.03
37291;BME280;23175;-33.706;151.094;2023-07-09T08:28:51;100094.30;;;11.35;36.82
37291;BME280;23175;-33.706;151.094;2023-07-09T08:31:21;100103.21;;;11.35;37.36
37291;BME280;23175;-33.706;151.094;2023-07-09T08:33:51;100108.05;;;12.32;36.25
37291;BME280;23175;-33.706;151.094;2023-07-09T08:36:26;100111.93;;;12.06;36.15
37291;BME280;23175;-33.706;151.094;2023-07-09T08:38:57;100110.72;;;13.67;34.21
37291;BME280;23175;-33.706;151.094;2023-07-09T08:41:37;100115.65;;;11.17;37.17
37291;BME280;23175;-33.706;151.094;2023-07-09T08:44:39;100113.32;;;9.35;38.08
37291;BME280;23175;-33.706;151.094;2023-07-09T08:47:21;100105.29;;;9.06;40.77
37291;BME280;23175;-33.706;151.094;2023-07-09T08:49:59;100106.78;;;8.76;41.19
37291;BME280;23175;-33.706;151.094;2023-07-09T08:52:35;100114.30;;;9.16;40.70
37291;BME280;23175;-33.706;151.094;2023-07-09T08:55:09;100121.12;;;6.67;42.92
37291;BME280;23175;-33.706;151.094;2023-07-09T08:57:43;100127.26;;;9.59;41.30
37291;BME280;23175;-33.706;151.094;2023-07-09T09:00:17;100131.24;;;11.36;38.35
37291;BME280;23175;-33.706;151.094;2023-07-09T09:02:51;100135.53;;;9.80;40.38
37291;BME280;23175;-33.706;151.094;2023-07-09T09:05:25;100143.99;;;12.18;37.07
37291;BME280;23175;-33.706;151.094;2023-07-09T09:08:00;100142.01;;;10.43;37.98
37291;BME280;23175;-33.706;151.094;2023-07-09T09:10:36;100143.94;;;9.69;38.56
37291;BME280;23175;-33.706;151.094;2023-07-09T09:13:11;100148.43;;;10.50;37.36
37291;BME280;23175;-33.706;151.094;2023-07-09T09:15:45;100152.56;;;13.44;34.53
37291;BME280;23175;-33.706;151.094;2023-07-09T09:18:21;100150.49;;;13.54;34.21
37291;BME280;23175;-33.706;151.094;2023-07-09T09:20:57;100156.52;;;13.34;35.45
37291;BME280;23175;-33.706;151.094;2023-07-09T09:23:35;100155.39;;;11.64;36.33
37291;BME280;23175;-33.706;151.094;2023-07-09T09:26:13;100152.91;;;9.07;38.38
37291;BME280;23175;-33.706;151.094;2023-07-09T09:28:44;100151.45;;;10.19;39.62
37291;BME280;23175;-33.706;151.094;2023-07-09T09:31:15;100153.99;;;7.89;41.41
37291;BME280;23175;-33.706;151.094;2023-07-09T09:33:48;100160.70;;;7.59;43.08
37291;BME280;23175;-33.706;151.094;2023-07-09T09:36:21;100159.86;;;8.10;42.33
37291;BME280;23175;-33.706;151.094;2023-07-09T09:38:52;100158.22;;;9.11;41.02
37291;BME280;23175;-33.706;151.094;2023-07-09T09:41:24;100157.74;;;10.75;39.47
37291;BME280;23175;-33.706;151.094;2023-07-09T09:43:55;100164.67;;;8.21;42.57
37291;BME280;23175;-33.706;151.094;2023-07-09T09:46:26;100171.23;;;9.44;41.56
37291;BME280;23175;-33.706;151.094;2023-07-09T09:49:00;100171.63;;;9.02;42.08
37291;BME280;23175;-33.706;151.094;2023-07-09T09:51:33;100180.46;;;9.12;41.77
37291;BME280;23175;-33.706;151.094;2023-07-09T09:54:03;100186.00;;;8.28;42.61
37291;BME280;23175;-33.706;151.094;2023-07-09T09:56:43;100190.72;;;11.98;37.91
37291;BME280;23175;-33.706;151.094;2023-07-09T09:59:20;100192.99;;;9.04;40.29
37291;BME280;23175;-33.706;151.094;2023-07-09T10:01:58;100196.90;;;7.97;42.35
37291;BME280;23175;-33.706;151.094;2023-07-09T10:04:29;100198.20;;;9.79;40.15
37291;BME280;23175;-33.706;151.094;2023-07-09T10:07:03;100202.61;;;11.30;37.73
37291;BME280;23175;-33.706;151.094;2023-07-09T10:09:43;100202.95;;;12.47;36.16
37291;BME280;23175;-33.706;151.094;2023-07-09T10:12:27;100203.12;;;8.44;41.62
37291;BME280;23175;-33.706;151.094;2023-07-09T10:15:05;100201.55;;;12.00;37.33
37291;BME280;23175;-33.706;151.094;2023-07-09T10:17:45;100196.74;;;9.67;39.40
37291;BME280;23175;-33.706;151.094;2023-07-09T10:20:23;100195.76;;;10.81;38.11
37291;BME280;23175;-33.706;151.094;2023-07-09T10:23:00;100193.42;;;9.33;39.65
37291;BME280;23175;-33.706;151.094;2023-07-09T10:25:39;100192.83;;;8.80;40.28
37291;BME280;23175;-33.706;151.094;2023-07-09T10:28:28;100192.71;;;10.13;39.52
37291;BME280;23175;-33.706;151.094;2023-07-09T10:31:09;100198.22;;;9.93;39.88
37291;BME280;23175;-33.706;151.094;2023-07-09T10:33:53;100208.14;;;11.43;38.20
37291;BME280;23175;-33.706;151.094;2023-07-09T10:36:37;100209.13;;;9.28;40.51
37291;BME280;23175;-33.706;151.094;2023-07-09T10:39:16;100219.36;;;11.74;36.85
37291;BME280;23175;-33.706;151.094;2023-07-09T10:41:49;100221.75;;;8.91;40.89
37291;BME280;23175;-33.706;151.094;2023-07-09T10:44:24;100227.15;;;13.51;35.61
37291;BME280;23175;-33.706;151.094;2023-07-09T10:47:01;100224.43;;;13.05;35.44
37291;BME280;23175;-33.706;151.094;2023-07-09T10:49:37;100219.46;;;14.27;33.91
37291;BME280;23175;-33.706;151.094;2023-07-09T10:52:13;100215.12;;;13.15;34.04
37291;BME280;23175;-33.706;151.094;2023-07-09T10:54:54;100217.54;;;11.81;36.94
37291;BME280;23175;-33.706;151.094;2023-07-09T10:57:30;100216.98;;;12.76;36.35
37291;BME280;23175;-33.706;151.094;2023-07-09T11:00:08;100214.42;;;11.06;37.46
37291;BME280;23175;-33.706;151.094;2023-07-09T11:02:42;100210.63;;;13.46;35.39
37291;BME280;23175;-33.706;151.094;2023-07-09T11:05:12;100218.09;;;11.02;38.84
37291;BME280;23175;-33.706;151.094;2023-07-09T11:07:46;100224.20;;;10.51;39.34
37291;BME280;23175;-33.706;151.094;2023-07-09T11:10:22;100236.03;;;7.87;43.49
37291;BME280;23175;-33.706;151.094;2023-07-09T11:12:58;100240.79;;;8.36;41.79
37291;BME280;23175;-33.706;151.094;2023-07-09T11:15:34;100240.35;;;11.73;37.90
37291;BME280;23175;-33.706;151.094;2023-07-09T11:18:10;100237.03;;;13.12;35.87
37291;BME280;23175;-33.706;151.094;2023-07-09T11:20:45;100238.51;;;13.99;35.37
37291;BME280;23175;-33.706;151.094;2023-07-09T11:23:21;100232.06;;;13.26;36.35
37291;BME280;23175;-33.706;151.094;2023-07-09T11:26:08;100230.18;;;11.98;37.82
37291;BME280;23175;-33.706;151.094;2023-07-09T11:28:45;100222.39;;;12.85;36.93
37291;BME280;23175;-33.706;151.094;2023-07-09T11:31:23;100217.35;;;9.93;40.79
37291;BME280;23175;-33.706;151.094;2023-07-09T11:34:15;100211.00;;;11.18;38.67
37291;BME280;23175;-33.706;151.094;2023-07-09T11:36:55;100205.46;;;12.29;37.98
37291;BME280;23175;-33.706;151.094;2023-07-09T11:39:30;100203.57;;;12.87;37.08
37291;BME280;23175;-33.706;151.094;2023-07-09T11:42:01;100209.65;;;11.91;39.10
37291;BME280;23175;-33.706;151.094;2023-07-09T11:44:32;100209.31;;;12.94;37.02
37291;BME280;23175;-33.706;151.094;2023-07-09T11:47:21;100214.73;;;12.48;36.88
37291;BME280;23175;-33.706;151.094;2023-07-09T11:49:56;100218.02;;;13.44;36.89
37291;BME280;23175;-33.706;151.094;2023-07-09T11:52:31;100220.15;;;13.36;36.52
37291;BME280;23175;-33.706;151.094;2023-07-09T11:55:19;100218.92;;;13.15;36.31
37291;BME280;23175;-33.706;151.094;2023-07-09T11:57:53;100225.65;;;12.99;37.28
37291;BME280;23175;-33.706;151.094;2023-07-09T12:00:23;100229.32;;;13.29;36.33
37291;BME280;23175;-33.706;151.094;2023-07-09T12:02:53;100224.85;;;13.63;36.24
37291;BME280;23175;-33.706;151.094;2023-07-09T12:05:28;100219.01;;;11.68;37.48
37291;BME280;23175;-33.706;151.094;2023-07-09T12:08:00;100216.95;;;12.77;37.07
37291;BME280;23175;-33.706;151.094;2023-07-09T12:10:35;100215.97;;;13.25;36.09
37291;BME280;23175;-33.706;151.094;2023-07-09T12:13:09;100211.28;;;11.67;36.65
37291;BME280;23175;-33.706;151.094;2023-07-09T12:15:41;100218.11;;;12.86;36.86
37291;BME280;23175;-33.706;151.094;2023-07-09T12:18:14;100220.07;;;12.54;37.16
37291;BME280;23175;-33.706;151.094;2023-07-09T12:20:49;100220.77;;;12.05;37.72
37291;BME280;23175;-33.706;151.094;2023-07-09T12:23:25;100222.75;;;12.55;37.62
37291;BME280;23175;-33.706;151.094;2023-07-09T12:26:01;100224.39;;;13.07;37.10
37291;BME280;23175;-33.706;151.094;2023-07-09T12:28:32;100223.35;;;12.51;37.36
37291;BME280;23175;-33.706;151.094;2023-07-09T12:31:02;100218.86;;;12.32;37.02
37291;BME280;23175;-33.706;151.094;2023-07-09T12:33:32;100213.38;;;12.56;36.99
37291;BME280;23175;-33.706;151.094;2023-07-09T12:36:04;100213.05;;;12.74;36.81
37291;BME280;23175;-33.706;151.094;2023-07-09T12:38:42;100206.47;;;12.86;36.62
37291;BME280;23175;-33.706;151.094;2023-07-09T12:41:20;100205.94;;;12.55;36.96
37291;BME280;23175;-33.706;151.094;2023-07-09T12:43:53;100208.96;;;11.88;37.92
37291;BME280;23175;-33.706;151.094;2023-07-09T12:46:25;100214.99;;;11.76;38.03
37291;BME280;23175;-33.706;151.094;2023-07-09T12:48:56;100217.08;;;12.11;38.12
37291;BME280;23175;-33.706;151.094;2023-07-09T12:51:28;100219.37;;;12.43;37.80
37291;BME280;23175;-33.706;151.094;2023-07-09T12:54:11;100223.26;;;11.64;38.02